sensor_id;sensor_type;location;lat;lon;timestamp;P1;durP1;ratioP1;P2;durP2;ratioP2
76332;SDS011;71254;53.010;6.508;2024-01-30T00:01:18;33.47;;;24.08;;
76332;SDS011;71254;53.010;6.508;2024-01-30T00:03:44;31.17;;;24.60;;
76332;SDS011;71254;53.010;6.508;2024-01-30T00:06:10;30.83;;;23.50;;
76332;SDS011;71254;53.010;6.508;2024-01-30T00:08:36;34.65;;;24.88;;
76332;SDS011;71254;53.010;6.508;2024-01-30T00:11:02;33.13;;;22.23;;
76332;SDS011;71254;53.010;6.508;2024-01-30T00:13:27;34.38;;;24.65;;
76332;SDS011;71254;53.010;6.508;2024-01-30T00:15:53;35.40;;;24.48;;
76332;SDS011;71254;53.010;6.508;2024-01-30T00:18:19;32.00;;;24.67;;
76332;SDS011;71254;53.010;6.508;2024-01-30T00:20:44;31.75;;;23.73;;
76332;SDS011;71254;53.010;6.508;2024-01-30T00:23:10;31.67;;;23.65;;
76332;SDS011;71254;53.010;6.508;2024-01-30T00:25:36;32.90;;;23.85;;
76332;SDS011;71254;53.010;6.508;2024-01-30T00:28:01;35.80;;;24.48;;
76332;SDS011;71254;53.010;6.508;2024-01-30T00:30:27;32.05;;;23.63;;
76332;SDS011;71254;53.010;6.508;2024-01-30T00:32:53;33.08;;;24.83;;
76332;SDS011;71254;53.010;6.508;2024-01-30T00:35:19;34.72;;;24.98;;
76332;SDS011;71254;53.010;6.508;2024-01-30T00:37:47;31.92;;;23.23;;
76332;SDS011;71254;53.010;6.508;2024-01-30T00:40:12;33.25;;;23.52;;
76332;SDS011;71254;53.010;6.508;2024-01-30T00:42:41;33.13;;;23.42;;
76332;SDS011;71254;53.010;6.508;2024-01-30T00:45:11;34.40;;;24.63;;
76332;SDS011;71254;53.010;6.508;2024-01-30T00:47:40;30.92;;;22.60;;
76332;SDS011;71254;53.010;6.508;2024-01-30T00:50:06;35.78;;;24.27;;
76332;SDS011;71254;53.010;6.508;2024-01-30T00:52:32;31.45;;;22.88;;
76332;SDS011;71254;53.010;6.508;2024-01-30T00:54:58;29.75;;;22.30;;
76332;SDS011;71254;53.010;6.508;2024-01-30T00:57:24;30.80;;;22.98;;
76332;SDS011;71254;53.010;6.508;2024-01-30T00:59:50;32.78;;;23.05;;
76332;SDS011;71254;53.010;6.508;2024-01-30T01:02:15;36.80;;;24.42;;
76332;SDS011;71254;53.010;6.508;2024-01-30T01:04:42;32.97;;;22.90;;
76332;SDS011;71254;53.010;6.508;2024-01-30T01:07:09;34.00;;;24.45;;
76332;SDS011;71254;53.010;6.508;2024-01-30T01:09:35;32.42;;;22.40;;
76332;SDS011;71254;53.010;6.508;2024-01-30T01:12:01;35.53;;;24.23;;
76332;SDS011;71254;53.010;6.508;2024-01-30T01:14:27;33.53;;;24.08;;
76332;SDS011;71254;53.010;6.508;2024-01-30T01:16:53;34.38;;;24.42;;
76332;SDS011;71254;53.010;6.508;2024-01-30T01:19:18;33.75;;;24.38;;
76332;SDS011;71254;53.010;6.508;2024-01-30T01:21:44;34.13;;;24.42;;
76332;SDS011;71254;53.010;6.508;2024-01-30T01:24:09;31.40;;;23.27;;
76332;SDS011;71254;53.010;6.508;2024-01-30T01:26:35;32.40;;;22.55;;
76332;SDS011;71254;53.010;6.508;2024-01-30T01:29:01;33.70;;;23.85;;
76332;SDS011;71254;53.010;6.508;2024-01-30T01:31:26;31.30;;;22.52;;
76332;SDS011;71254;53.010;6.508;2024-01-30T01:33:54;30.95;;;23.50;;
76332;SDS011;71254;53.010;6.508;2024-01-30T01:36:20;32.75;;;22.70;;
76332;SDS011;71254;53.010;6.508;2024-01-30T01:38:46;33.60;;;22.48;;
76332;SDS011;71254;53.010;6.508;2024-01-30T01:41:11;32.22;;;23.98;;
76332;SDS011;71254;53.010;6.508;2024-01-30T01:43:37;30.92;;;23.98;;
76332;SDS011;71254;53.010;6.508;2024-01-30T01:46:04;29.20;;;22.83;;
76332;SDS011;71254;53.010;6.508;2024-01-30T01:48:31;36.08;;;24.02;;
76332;SDS011;71254;53.010;6.508;2024-01-30T01:50:58;34.10;;;24.80;;
76332;SDS011;71254;53.010;6.508;2024-01-30T01:53:25;32.60;;;23.67;;
76332;SDS011;71254;53.010;6.508;2024-01-30T01:55:51;34.40;;;23.90;;
76332;SDS011;71254;53.010;6.508;2024-01-30T01:58:18;33.28;;;24.33;;
76332;SDS011;71254;53.010;6.508;2024-01-30T02:00:46;32.90;;;23.42;;
76332;SDS011;71254;53.010;6.508;2024-01-30T02:03:12;29.70;;;23.05;;
76332;SDS011;71254;53.010;6.508;2024-01-30T02:05:40;31.95;;;22.90;;
76332;SDS011;71254;53.010;6.508;2024-01-30T02:08:07;30.23;;;22.98;;
76332;SDS011;71254;53.010;6.508;2024-01-30T02:10:33;32.17;;;23.40;;
76332;SDS011;71254;53.010;6.508;2024-01-30T02:12:59;32.95;;;24.08;;
76332;SDS011;71254;53.010;6.508;2024-01-30T02:15:25;31.70;;;23.45;;
76332;SDS011;71254;53.010;6.508;2024-01-30T02:17:50;34.03;;;23.73;;
76332;SDS011;71254;53.010;6.508;2024-01-30T02:20:16;35.13;;;22.73;;
76332;SDS011;71254;53.010;6.508;2024-01-30T02:22:42;32.35;;;22.65;;
76332;SDS011;71254;53.010;6.508;2024-01-30T02:25:08;30.92;;;22.67;;
76332;SDS011;71254;53.010;6.508;2024-01-30T02:27:33;31.13;;;22.83;;
76332;SDS011;71254;53.010;6.508;2024-01-30T02:29:59;29.35;;;22.38;;
76332;SDS011;71254;53.010;6.508;2024-01-30T02:32:25;29.50;;;22.50;;
76332;SDS011;71254;53.010;6.508;2024-01-30T02:34:50;27.98;;;21.60;;
76332;SDS011;71254;53.010;6.508;2024-01-30T02:37:16;33.63;;;23.13;;
76332;SDS011;71254;53.010;6.508;2024-01-30T02:39:42;30.30;;;22.63;;
76332;SDS011;71254;53.010;6.508;2024-01-30T02:42:07;32.88;;;22.33;;
76332;SDS011;71254;53.010;6.508;2024-01-30T02:44:35;27.88;;;21.35;;
76332;SDS011;71254;53.010;6.508;2024-01-30T02:47:01;29.55;;;21.75;;
76332;SDS011;71254;53.010;6.508;2024-01-30T02:49:26;30.15;;;21.55;;
76332;SDS011;71254;53.010;6.508;2024-01-30T02:51:53;31.40;;;21.92;;
76332;SDS011;71254;53.010;6.508;2024-01-30T02:54:19;29.90;;;21.73;;
76332;SDS011;71254;53.010;6.508;2024-01-30T02:56:45;28.63;;;21.65;;
76332;SDS011;71254;53.010;6.508;2024-01-30T02:59:10;30.83;;;22.63;;
76332;SDS011;71254;53.010;6.508;2024-01-30T03:01:43;28.15;;;21.67;;
76332;SDS011;71254;53.010;6.508;2024-01-30T03:04:09;29.00;;;21.48;;
76332;SDS011;71254;53.010;6.508;2024-01-30T03:06:35;30.40;;;22.50;;
76332;SDS011;71254;53.010;6.508;2024-01-30T03:09:04;27.65;;;21.08;;
76332;SDS011;71254;53.010;6.508;2024-01-30T03:11:30;30.30;;;21.25;;
76332;SDS011;71254;53.010;6.508;2024-01-30T03:13:58;32.03;;;21.50;;
76332;SDS011;71254;53.010;6.508;2024-01-30T03:16:24;30.35;;;22.23;;
76332;SDS011;71254;53.010;6.508;2024-01-30T03:18:49;29.00;;;21.90;;
76332;SDS011;71254;53.010;6.508;2024-01-30T03:21:15;28.63;;;21.00;;
76332;SDS011;71254;53.010;6.508;2024-01-30T03:23:43;27.88;;;20.35;;
76332;SDS011;71254;53.010;6.508;2024-01-30T03:26:09;30.02;;;20.77;;
76332;SDS011;71254;53.010;6.508;2024-01-30T03:28:36;29.27;;;21.08;;
76332;SDS011;71254;53.010;6.508;2024-01-30T03:31:01;27.85;;;20.88;;
76332;SDS011;71254;53.010;6.508;2024-01-30T03:33:27;27.02;;;20.45;;
76332;SDS011;71254;53.010;6.508;2024-01-30T03:35:53;33.65;;;21.88;;
76332;SDS011;71254;53.010;6.508;2024-01-30T03:38:18;29.38;;;21.45;;
76332;SDS011;71254;53.010;6.508;2024-01-30T03:40:44;29.38;;;21.08;;
76332;SDS011;71254;53.010;6.508;2024-01-30T03:43:09;27.42;;;19.98;;
76332;SDS011;71254;53.010;6.508;2024-01-30T03:45:35;28.85;;;19.13;;
76332;SDS011;71254;53.010;6.508;2024-01-30T03:48:01;27.48;;;20.02;;
76332;SDS011;71254;53.010;6.508;2024-01-30T03:50:26;29.05;;;20.63;;
76332;SDS011;71254;53.010;6.508;2024-01-30T03:52:53;27.10;;;20.63;;
76332;SDS011;71254;53.010;6.508;2024-01-30T03:55:18;28.88;;;20.92;;
76332;SDS011;71254;53.010;6.508;2024-01-30T03:57:44;28.60;;;20.38;;
76332;SDS011;71254;53.010;6.508;2024-01-30T04:00:10;27.38;;;20.92;;
76332;SDS011;71254;53.010;6.508;2024-01-30T04:02:36;26.00;;;19.00;;
76332;SDS011;71254;53.010;6.508;2024-01-30T04:05:01;26.83;;;19.58;;
76332;SDS011;71254;53.010;6.508;2024-01-30T04:07:27;26.25;;;19.65;;
76332;SDS011;71254;53.010;6.508;2024-01-30T04:09:52;27.70;;;19.30;;
76332;SDS011;71254;53.010;6.508;2024-01-30T04:12:18;29.45;;;20.38;;
76332;SDS011;71254;53.010;6.508;2024-01-30T04:14:43;30.45;;;19.40;;
76332;SDS011;71254;53.010;6.508;2024-01-30T04:17:09;26.48;;;19.95;;
76332;SDS011;71254;53.010;6.508;2024-01-30T04:19:37;25.75;;;18.80;;
76332;SDS011;71254;53.010;6.508;2024-01-30T04:22:03;24.63;;;18.92;;
76332;SDS011;71254;53.010;6.508;2024-01-30T04:24:29;23.67;;;18.10;;
76332;SDS011;71254;53.010;6.508;2024-01-30T04:26:54;23.40;;;17.55;;
76332;SDS011;71254;53.010;6.508;2024-01-30T04:29:20;25.52;;;18.65;;
76332;SDS011;71254;53.010;6.508;2024-01-30T04:31:47;22.60;;;18.35;;
76332;SDS011;71254;53.010;6.508;2024-01-30T04:34:13;26.10;;;17.65;;
76332;SDS011;71254;53.010;6.508;2024-01-30T04:36:38;23.75;;;18.15;;
76332;SDS011;71254;53.010;6.508;2024-01-30T04:39:04;27.27;;;17.83;;
76332;SDS011;71254;53.010;6.508;2024-01-30T04:41:29;24.92;;;17.65;;
76332;SDS011;71254;53.010;6.508;2024-01-30T04:43:57;23.88;;;17.65;;
76332;SDS011;71254;53.010;6.508;2024-01-30T04:46:22;24.05;;;18.05;;
76332;SDS011;71254;53.010;6.508;2024-01-30T04:48:51;21.25;;;16.17;;
76332;SDS011;71254;53.010;6.508;2024-01-30T04:51:16;24.50;;;16.83;;
76332;SDS011;71254;53.010;6.508;2024-01-30T04:53:42;30.05;;;17.20;;
76332;SDS011;71254;53.010;6.508;2024-01-30T04:56:07;23.38;;;17.42;;
76332;SDS011;71254;53.010;6.508;2024-01-30T04:58:33;24.00;;;16.95;;
76332;SDS011;71254;53.010;6.508;2024-01-30T05:00:59;22.77;;;17.42;;
76332;SDS011;71254;53.010;6.508;2024-01-30T05:03:24;21.52;;;16.65;;
76332;SDS011;71254;53.010;6.508;2024-01-30T05:05:50;22.55;;;16.83;;
76332;SDS011;71254;53.010;6.508;2024-01-30T05:08:15;21.52;;;15.98;;
76332;SDS011;71254;53.010;6.508;2024-01-30T05:10:41;20.88;;;16.08;;
76332;SDS011;71254;53.010;6.508;2024-01-30T05:13:07;23.65;;;16.65;;
76332;SDS011;71254;53.010;6.508;2024-01-30T05:15:32;22.27;;;16.88;;
76332;SDS011;71254;53.010;6.508;2024-01-30T05:17:58;23.60;;;16.63;;
76332;SDS011;71254;53.010;6.508;2024-01-30T05:20:23;23.23;;;16.92;;
76332;SDS011;71254;53.010;6.508;2024-01-30T05:22:52;21.02;;;15.70;;
76332;SDS011;71254;53.010;6.508;2024-01-30T05:25:18;19.83;;;16.02;;
76332;SDS011;71254;53.010;6.508;2024-01-30T05:27:44;21.85;;;16.15;;
76332;SDS011;71254;53.010;6.508;2024-01-30T05:30:10;21.00;;;15.32;;
76332;SDS011;71254;53.010;6.508;2024-01-30T05:32:36;21.75;;;15.40;;
76332;SDS011;71254;53.010;6.508;2024-01-30T05:35:01;20.60;;;15.20;;
76332;SDS011;71254;53.010;6.508;2024-01-30T05:37:27;20.55;;;15.95;;
76332;SDS011;71254;53.010;6.508;2024-01-30T05:39:53;19.75;;;15.18;;
76332;SDS011;71254;53.010;6.508;2024-01-30T05:42:19;20.55;;;14.35;;
76332;SDS011;71254;53.010;6.508;2024-01-30T05:44:44;22.92;;;16.45;;
76332;SDS011;71254;53.010;6.508;2024-01-30T05:47:10;28.88;;;20.23;;
76332;SDS011;71254;53.010;6.508;2024-01-30T05:49:35;20.67;;;15.57;;
76332;SDS011;71254;53.010;6.508;2024-01-30T05:52:02;23.40;;;15.60;;
76332;SDS011;71254;53.010;6.508;2024-01-30T05:54:28;21.63;;;15.68;;
76332;SDS011;71254;53.010;6.508;2024-01-30T05:56:54;20.13;;;15.57;;
76332;SDS011;71254;53.010;6.508;2024-01-30T05:59:20;21.25;;;15.88;;
76332;SDS011;71254;53.010;6.508;2024-01-30T06:01:46;20.17;;;14.48;;
76332;SDS011;71254;53.010;6.508;2024-01-30T06:04:14;21.98;;;14.75;;
76332;SDS011;71254;53.010;6.508;2024-01-30T06:06:40;18.38;;;13.95;;
76332;SDS011;71254;53.010;6.508;2024-01-30T06:09:09;20.17;;;15.27;;
76332;SDS011;71254;53.010;6.508;2024-01-30T06:11:34;23.63;;;18.25;;
76332;SDS011;71254;53.010;6.508;2024-01-30T06:14:00;19.80;;;15.40;;
76332;SDS011;71254;53.010;6.508;2024-01-30T06:16:26;22.20;;;17.50;;
76332;SDS011;71254;53.010;6.508;2024-01-30T06:18:54;20.08;;;14.27;;
76332;SDS011;71254;53.010;6.508;2024-01-30T06:21:20;20.77;;;15.57;;
76332;SDS011;71254;53.010;6.508;2024-01-30T06:23:46;19.52;;;15.13;;
76332;SDS011;71254;53.010;6.508;2024-01-30T06:26:12;19.40;;;14.75;;
76332;SDS011;71254;53.010;6.508;2024-01-30T06:28:37;17.10;;;14.63;;
76332;SDS011;71254;53.010;6.508;2024-01-30T06:31:04;20.58;;;13.60;;
76332;SDS011;71254;53.010;6.508;2024-01-30T06:33:31;20.38;;;14.55;;
76332;SDS011;71254;53.010;6.508;2024-01-30T06:35:56;20.30;;;14.88;;
76332;SDS011;71254;53.010;6.508;2024-01-30T06:38:22;23.10;;;15.65;;
76332;SDS011;71254;53.010;6.508;2024-01-30T06:40:47;22.00;;;13.73;;
76332;SDS011;71254;53.010;6.508;2024-01-30T06:43:13;19.40;;;15.30;;
76332;SDS011;71254;53.010;6.508;2024-01-30T06:45:38;18.17;;;14.75;;
76332;SDS011;71254;53.010;6.508;2024-01-30T06:48:04;19.38;;;14.65;;
76332;SDS011;71254;53.010;6.508;2024-01-30T06:50:30;18.88;;;14.13;;
76332;SDS011;71254;53.010;6.508;2024-01-30T06:52:56;18.27;;;14.43;;
76332;SDS011;71254;53.010;6.508;2024-01-30T06:55:21;21.55;;;14.13;;
76332;SDS011;71254;53.010;6.508;2024-01-30T06:57:47;18.45;;;14.02;;
76332;SDS011;71254;53.010;6.508;2024-01-30T07:00:13;20.20;;;14.68;;
76332;SDS011;71254;53.010;6.508;2024-01-30T07:02:39;19.08;;;14.18;;
76332;SDS011;71254;53.010;6.508;2024-01-30T07:05:05;20.23;;;14.13;;
76332;SDS011;71254;53.010;6.508;2024-01-30T07:07:31;20.65;;;15.18;;
76332;SDS011;71254;53.010;6.508;2024-01-30T07:09:56;18.92;;;14.68;;
76332;SDS011;71254;53.010;6.508;2024-01-30T07:12:22;18.05;;;15.35;;
76332;SDS011;71254;53.010;6.508;2024-01-30T07:14:50;20.55;;;14.77;;
76332;SDS011;71254;53.010;6.508;2024-01-30T07:17:16;19.42;;;14.02;;
76332;SDS011;71254;53.010;6.508;2024-01-30T07:19:42;17.45;;;13.32;;
76332;SDS011;71254;53.010;6.508;2024-01-30T07:22:08;18.98;;;12.95;;
76332;SDS011;71254;53.010;6.508;2024-01-30T07:24:33;19.83;;;14.40;;
76332;SDS011;71254;53.010;6.508;2024-01-30T07:26:59;21.05;;;14.57;;
76332;SDS011;71254;53.010;6.508;2024-01-30T07:29:25;19.90;;;13.95;;
76332;SDS011;71254;53.010;6.508;2024-01-30T07:31:50;18.40;;;13.93;;
76332;SDS011;71254;53.010;6.508;2024-01-30T07:34:16;19.05;;;14.05;;
76332;SDS011;71254;53.010;6.508;2024-01-30T07:36:42;21.00;;;14.40;;
76332;SDS011;71254;53.010;6.508;2024-01-30T07:39:07;19.77;;;13.70;;
76332;SDS011;71254;53.010;6.508;2024-01-30T07:41:33;18.90;;;13.68;;
76332;SDS011;71254;53.010;6.508;2024-01-30T07:43:58;20.10;;;15.60;;
76332;SDS011;71254;53.010;6.508;2024-01-30T07:46:25;19.75;;;14.57;;
76332;SDS011;71254;53.010;6.508;2024-01-30T07:48:53;20.27;;;14.23;;
76332;SDS011;71254;53.010;6.508;2024-01-30T07:51:18;17.13;;;13.60;;
76332;SDS011;71254;53.010;6.508;2024-01-30T07:53:57;18.13;;;13.18;;
76332;SDS011;71254;53.010;6.508;2024-01-30T07:56:23;18.90;;;13.73;;
76332;SDS011;71254;53.010;6.508;2024-01-30T07:58:49;20.17;;;13.55;;
76332;SDS011;71254;53.010;6.508;2024-01-30T08:01:15;16.83;;;13.05;;
76332;SDS011;71254;53.010;6.508;2024-01-30T08:03:41;19.63;;;13.70;;
76332;SDS011;71254;53.010;6.508;2024-01-30T08:06:06;19.95;;;13.75;;
76332;SDS011;71254;53.010;6.508;2024-01-30T08:08:32;19.45;;;13.80;;
76332;SDS011;71254;53.010;6.508;2024-01-30T08:10:58;19.33;;;13.93;;
76332;SDS011;71254;53.010;6.508;2024-01-30T08:13:23;19.33;;;14.00;;
76332;SDS011;71254;53.010;6.508;2024-01-30T08:15:49;17.25;;;13.55;;
76332;SDS011;71254;53.010;6.508;2024-01-30T08:18:15;15.13;;;12.73;;
76332;SDS011;71254;53.010;6.508;2024-01-30T08:20:40;19.85;;;14.00;;
76332;SDS011;71254;53.010;6.508;2024-01-30T08:23:06;18.58;;;13.43;;
76332;SDS011;71254;53.010;6.508;2024-01-30T08:25:32;18.35;;;13.80;;
76332;SDS011;71254;53.010;6.508;2024-01-30T08:27:57;16.17;;;13.05;;
76332;SDS011;71254;53.010;6.508;2024-01-30T08:30:23;20.23;;;13.35;;
76332;SDS011;71254;53.010;6.508;2024-01-30T08:32:48;19.33;;;13.40;;
76332;SDS011;71254;53.010;6.508;2024-01-30T08:35:14;17.13;;;13.02;;
76332;SDS011;71254;53.010;6.508;2024-01-30T08:37:41;15.57;;;12.90;;
76332;SDS011;71254;53.010;6.508;2024-01-30T08:40:07;17.20;;;12.32;;
76332;SDS011;71254;53.010;6.508;2024-01-30T08:42:35;16.13;;;12.55;;
76332;SDS011;71254;53.010;6.508;2024-01-30T08:45:01;19.70;;;12.90;;
76332;SDS011;71254;53.010;6.508;2024-01-30T08:47:28;18.13;;;12.90;;
76332;SDS011;71254;53.010;6.508;2024-01-30T08:49:53;18.73;;;13.50;;
76332;SDS011;71254;53.010;6.508;2024-01-30T08:52:19;17.80;;;12.85;;
76332;SDS011;71254;53.010;6.508;2024-01-30T08:54:44;17.08;;;12.23;;
76332;SDS011;71254;53.010;6.508;2024-01-30T08:57:10;17.52;;;13.30;;
76332;SDS011;71254;53.010;6.508;2024-01-30T08:59:36;16.73;;;12.52;;
76332;SDS011;71254;53.010;6.508;2024-01-30T09:02:01;17.13;;;13.32;;
76332;SDS011;71254;53.010;6.508;2024-01-30T09:04:28;15.48;;;12.35;;
76332;SDS011;71254;53.010;6.508;2024-01-30T09:06:54;16.08;;;12.73;;
76332;SDS011;71254;53.010;6.508;2024-01-30T09:09:20;16.20;;;12.50;;
76332;SDS011;71254;53.010;6.508;2024-01-30T09:11:45;17.92;;;12.50;;
76332;SDS011;71254;53.010;6.508;2024-01-30T09:14:11;19.35;;;12.73;;
76332;SDS011;71254;53.010;6.508;2024-01-30T09:16:37;17.55;;;13.23;;
76332;SDS011;71254;53.010;6.508;2024-01-30T09:19:02;17.05;;;12.90;;
76332;SDS011;71254;53.010;6.508;2024-01-30T09:21:28;15.98;;;12.25;;
76332;SDS011;71254;53.010;6.508;2024-01-30T09:23:54;16.88;;;12.90;;
76332;SDS011;71254;53.010;6.508;2024-01-30T09:26:26;16.63;;;12.38;;
76332;SDS011;71254;53.010;6.508;2024-01-30T09:28:51;18.05;;;12.90;;
76332;SDS011;71254;53.010;6.508;2024-01-30T09:31:19;21.65;;;13.98;;
76332;SDS011;71254;53.010;6.508;2024-01-30T09:33:45;17.33;;;13.18;;
76332;SDS011;71254;53.010;6.508;2024-01-30T09:36:13;16.67;;;12.30;;
76332;SDS011;71254;53.010;6.508;2024-01-30T09:38:40;18.02;;;12.75;;
76332;SDS011;71254;53.010;6.508;2024-01-30T09:41:07;16.50;;;12.90;;
76332;SDS011;71254;53.010;6.508;2024-01-30T09:43:36;14.50;;;11.75;;
76332;SDS011;71254;53.010;6.508;2024-01-30T09:46:04;17.77;;;12.23;;
76332;SDS011;71254;53.010;6.508;2024-01-30T09:48:32;18.10;;;12.25;;
76332;SDS011;71254;53.010;6.508;2024-01-30T09:50:59;21.25;;;13.27;;
76332;SDS011;71254;53.010;6.508;2024-01-30T09:53:25;17.90;;;11.48;;
76332;SDS011;71254;53.010;6.508;2024-01-30T09:55:51;19.48;;;12.38;;
76332;SDS011;71254;53.010;6.508;2024-01-30T09:58:17;15.57;;;11.23;;
76332;SDS011;71254;53.010;6.508;2024-01-30T10:00:42;15.68;;;12.48;;
76332;SDS011;71254;53.010;6.508;2024-01-30T10:03:08;15.68;;;11.23;;
76332;SDS011;71254;53.010;6.508;2024-01-30T10:05:35;17.30;;;11.45;;
76332;SDS011;71254;53.010;6.508;2024-01-30T10:10:33;17.08;;;11.85;;
76332;SDS011;71254;53.010;6.508;2024-01-30T10:13:00;15.80;;;11.77;;
76332;SDS011;71254;53.010;6.508;2024-01-30T10:15:26;15.82;;;11.73;;
76332;SDS011;71254;53.010;6.508;2024-01-30T10:17:53;18.55;;;12.25;;
76332;SDS011;71254;53.010;6.508;2024-01-30T10:20:19;18.70;;;13.25;;
76332;SDS011;71254;53.010;6.508;2024-01-30T10:22:47;18.90;;;13.77;;
76332;SDS011;71254;53.010;6.508;2024-01-30T10:25:13;16.58;;;12.20;;
76332;SDS011;71254;53.010;6.508;2024-01-30T10:27:39;16.17;;;12.05;;
76332;SDS011;71254;53.010;6.508;2024-01-30T10:30:05;17.00;;;12.00;;
76332;SDS011;71254;53.010;6.508;2024-01-30T10:32:32;15.20;;;11.73;;
76332;SDS011;71254;53.010;6.508;2024-01-30T10:34:57;15.52;;;11.90;;
76332;SDS011;71254;53.010;6.508;2024-01-30T10:37:25;17.90;;;12.55;;
76332;SDS011;71254;53.010;6.508;2024-01-30T10:39:51;15.63;;;11.77;;
76332;SDS011;71254;53.010;6.508;2024-01-30T10:42:23;14.13;;;11.05;;
76332;SDS011;71254;53.010;6.508;2024-01-30T10:45:07;14.85;;;11.13;;
76332;SDS011;71254;53.010;6.508;2024-01-30T10:47:34;16.33;;;11.35;;
76332;SDS011;71254;53.010;6.508;2024-01-30T10:50:01;14.50;;;10.98;;
76332;SDS011;71254;53.010;6.508;2024-01-30T10:52:28;19.95;;;12.50;;
76332;SDS011;71254;53.010;6.508;2024-01-30T10:54:55;18.80;;;12.25;;
76332;SDS011;71254;53.010;6.508;2024-01-30T10:57:22;15.75;;;11.80;;
76332;SDS011;71254;53.010;6.508;2024-01-30T10:59:49;17.90;;;12.48;;
76332;SDS011;71254;53.010;6.508;2024-01-30T11:02:18;18.20;;;12.93;;
76332;SDS011;71254;53.010;6.508;2024-01-30T11:04:45;19.92;;;13.15;;
76332;SDS011;71254;53.010;6.508;2024-01-30T11:07:14;20.63;;;13.38;;
76332;SDS011;71254;53.010;6.508;2024-01-30T11:09:41;19.38;;;12.98;;
76332;SDS011;71254;53.010;6.508;2024-01-30T11:12:13;18.20;;;13.05;;
76332;SDS011;71254;53.010;6.508;2024-01-30T11:14:39;18.10;;;12.63;;
76332;SDS011;71254;53.010;6.508;2024-01-30T11:17:09;18.45;;;13.57;;
76332;SDS011;71254;53.010;6.508;2024-01-30T11:19:37;15.85;;;11.98;;
76332;SDS011;71254;53.010;6.508;2024-01-30T11:22:03;17.55;;;12.93;;
76332;SDS011;71254;53.010;6.508;2024-01-30T11:24:36;21.00;;;13.63;;
76332;SDS011;71254;53.010;6.508;2024-01-30T11:27:08;17.83;;;12.93;;
76332;SDS011;71254;53.010;6.508;2024-01-30T11:29:35;17.60;;;12.60;;
76332;SDS011;71254;53.010;6.508;2024-01-30T11:32:01;18.73;;;14.02;;
76332;SDS011;71254;53.010;6.508;2024-01-30T11:34:27;20.30;;;13.60;;
76332;SDS011;71254;53.010;6.508;2024-01-30T11:36:59;18.10;;;12.50;;
76332;SDS011;71254;53.010;6.508;2024-01-30T11:39:31;19.55;;;13.45;;
76332;SDS011;71254;53.010;6.508;2024-01-30T11:41:57;19.95;;;12.73;;
76332;SDS011;71254;53.010;6.508;2024-01-30T11:44:24;19.60;;;13.35;;
76332;SDS011;71254;53.010;6.508;2024-01-30T11:46:52;21.70;;;15.02;;
76332;SDS011;71254;53.010;6.508;2024-01-30T11:49:18;25.75;;;14.80;;
76332;SDS011;71254;53.010;6.508;2024-01-30T11:51:46;17.58;;;11.10;;
76332;SDS011;71254;53.010;6.508;2024-01-30T11:54:15;23.42;;;10.77;;
76332;SDS011;71254;53.010;6.508;2024-01-30T11:56:41;19.52;;;10.00;;
76332;SDS011;71254;53.010;6.508;2024-01-30T11:59:08;18.70;;;9.00;;
76332;SDS011;71254;53.010;6.508;2024-01-30T12:01:33;18.08;;;8.32;;
76332;SDS011;71254;53.010;6.508;2024-01-30T12:03:59;17.65;;;8.43;;
76332;SDS011;71254;53.010;6.508;2024-01-30T12:06:25;18.00;;;8.25;;
76332;SDS011;71254;53.010;6.508;2024-01-30T12:08:57;18.05;;;8.23;;
76332;SDS011;71254;53.010;6.508;2024-01-30T12:11:24;13.10;;;6.22;;
76332;SDS011;71254;53.010;6.508;2024-01-30T12:13:51;11.75;;;6.05;;
76332;SDS011;71254;53.010;6.508;2024-01-30T12:16:17;10.88;;;6.13;;
76332;SDS011;71254;53.010;6.508;2024-01-30T12:18:43;12.82;;;6.35;;
76332;SDS011;71254;53.010;6.508;2024-01-30T12:21:11;10.65;;;5.75;;
76332;SDS011;71254;53.010;6.508;2024-01-30T12:23:37;9.23;;;4.47;;
76332;SDS011;71254;53.010;6.508;2024-01-30T12:26:02;10.13;;;5.13;;
76332;SDS011;71254;53.010;6.508;2024-01-30T12:28:32;6.67;;;3.83;;
76332;SDS011;71254;53.010;6.508;2024-01-30T12:31:01;8.88;;;3.53;;
76332;SDS011;71254;53.010;6.508;2024-01-30T12:33:28;6.63;;;3.70;;
76332;SDS011;71254;53.010;6.508;2024-01-30T12:35:55;7.90;;;3.28;;
76332;SDS011;71254;53.010;6.508;2024-01-30T12:38:22;4.95;;;2.78;;
76332;SDS011;71254;53.010;6.508;2024-01-30T12:40:49;3.80;;;2.42;;
76332;SDS011;71254;53.010;6.508;2024-01-30T12:45:44;2.92;;;1.83;;
76332;SDS011;71254;53.010;6.508;2024-01-30T12:48:10;3.53;;;2.15;;
76332;SDS011;71254;53.010;6.508;2024-01-30T12:50:36;4.35;;;1.80;;
76332;SDS011;71254;53.010;6.508;2024-01-30T12:53:03;6.57;;;1.80;;
76332;SDS011;71254;53.010;6.508;2024-01-30T12:55:29;3.20;;;1.33;;
76332;SDS011;71254;53.010;6.508;2024-01-30T12:57:55;2.78;;;1.17;;
76332;SDS011;71254;53.010;6.508;2024-01-30T13:00:21;2.70;;;1.25;;
76332;SDS011;71254;53.010;6.508;2024-01-30T13:02:47;2.00;;;0.98;;
76332;SDS011;71254;53.010;6.508;2024-01-30T13:05:13;2.08;;;0.75;;
76332;SDS011;71254;53.010;6.508;2024-01-30T13:07:40;1.10;;;0.90;;
76332;SDS011;71254;53.010;6.508;2024-01-30T13:10:05;2.78;;;1.10;;
76332;SDS011;71254;53.010;6.508;2024-01-30T13:12:31;3.45;;;1.20;;
76332;SDS011;71254;53.010;6.508;2024-01-30T13:14:58;2.00;;;1.10;;
76332;SDS011;71254;53.010;6.508;2024-01-30T13:17:26;3.03;;;0.88;;
76332;SDS011;71254;53.010;6.508;2024-01-30T13:19:52;2.97;;;0.95;;
76332;SDS011;71254;53.010;6.508;2024-01-30T13:22:19;1.00;;;0.90;;
76332;SDS011;71254;53.010;6.508;2024-01-30T13:24:46;1.27;;;0.80;;
76332;SDS011;71254;53.010;6.508;2024-01-30T13:27:12;2.38;;;0.95;;
76332;SDS011;71254;53.010;6.508;2024-01-30T13:29:38;2.42;;;0.80;;
76332;SDS011;71254;53.010;6.508;2024-01-30T13:32:04;1.92;;;1.00;;
76332;SDS011;71254;53.010;6.508;2024-01-30T13:34:30;2.22;;;1.00;;
76332;SDS011;71254;53.010;6.508;2024-01-30T13:36:56;1.73;;;1.00;;
76332;SDS011;71254;53.010;6.508;2024-01-30T13:39:22;2.42;;;0.65;;
76332;SDS011;71254;53.010;6.508;2024-01-30T13:41:48;1.70;;;0.85;;
76332;SDS011;71254;53.010;6.508;2024-01-30T13:44:14;2.45;;;1.10;;
76332;SDS011;71254;53.010;6.508;2024-01-30T13:46:41;2.17;;;0.90;;
76332;SDS011;71254;53.010;6.508;2024-01-30T13:49:11;0.80;;;0.77;;
76332;SDS011;71254;53.010;6.508;2024-01-30T13:51:36;2.45;;;1.25;;
76332;SDS011;71254;53.010;6.508;2024-01-30T13:54:02;1.63;;;1.05;;
76332;SDS011;71254;53.010;6.508;2024-01-30T13:56:28;3.50;;;1.70;;
76332;SDS011;71254;53.010;6.508;2024-01-30T13:58:55;1.70;;;1.40;;
76332;SDS011;71254;53.010;6.508;2024-01-30T14:01:21;1.50;;;1.40;;
76332;SDS011;71254;53.010;6.508;2024-01-30T14:03:49;2.85;;;1.50;;
76332;SDS011;71254;53.010;6.508;2024-01-30T14:06:15;2.78;;;1.88;;
76332;SDS011;71254;53.010;6.508;2024-01-30T14:08:40;3.83;;;1.50;;
76332;SDS011;71254;53.010;6.508;2024-01-30T14:11:06;1.98;;;1.63;;
76332;SDS011;71254;53.010;6.508;2024-01-30T14:13:32;3.83;;;1.92;;
76332;SDS011;71254;53.010;6.508;2024-01-30T14:15:57;2.60;;;1.70;;
76332;SDS011;71254;53.010;6.508;2024-01-30T14:18:23;2.63;;;1.50;;
76332;SDS011;71254;53.010;6.508;2024-01-30T14:20:50;3.28;;;1.90;;
76332;SDS011;71254;53.010;6.508;2024-01-30T14:23:16;2.33;;;1.73;;
76332;SDS011;71254;53.010;6.508;2024-01-30T14:25:42;2.97;;;1.80;;